createdAt,value
2019-03-31T00:02:05.218Z,101342.74
2019-03-31T00:04:33.604Z,101357.36
2019-03-31T00:07:02.097Z,101347.09
2019-03-31T00:09:30.517Z,101341.62
2019-03-31T00:11:59.003Z,101341.28
2019-03-31T00:14:27.451Z,101345.59
2019-03-31T00:16:55.994Z,101340.50
2019-03-31T00:19:24.454Z,101346.59
2019-03-31T00:21:52.870Z,101338.37
2019-03-31T00:24:21.272Z,101332.68
2019-03-31T00:26:49.774Z,101327.60
2019-03-31T00:29:18.170Z,101341.16
2019-03-31T00:31:46.616Z,101343.72
2019-03-31T00:34:15.039Z,101346.49
2019-03-31T00:36:43.457Z,101343.42
2019-03-31T00:39:11.958Z,101342.39
2019-03-31T00:41:40.383Z,101341.54
2019-03-31T00:44:08.971Z,101341.87
2019-03-31T00:46:37.384Z,101342.25
2019-03-31T00:49:05.812Z,101348.63
2019-03-31T00:51:34.216Z,101346.47
2019-03-31T00:54:02.711Z,101347.89
2019-03-31T00:56:31.144Z,101345.63
2019-03-31T00:58:59.578Z,101346.13
2019-03-31T01:01:36.412Z,101344.41
2019-03-31T01:04:00.023Z,101349.88
2019-03-31T01:06:29.131Z,101349.46
2019-03-31T01:08:58.148Z,101343.20
2019-03-31T01:11:28.117Z,101350.08
2019-03-31T01:13:56.762Z,101349.59
2019-03-31T01:16:26.314Z,101342.07
2019-03-31T01:18:54.930Z,101346.67
2019-03-31T01:21:23.359Z,101349.30
2019-03-31T01:23:51.880Z,101350.69
2019-03-31T01:26:20.999Z,101352.98
2019-03-31T01:28:49.783Z,101356.23
2019-03-31T01:31:18.341Z,101358.91
2019-03-31T01:33:46.829Z,101350.80
2019-03-31T01:36:15.419Z,101353.55
2019-03-31T01:38:43.902Z,101347.28
2019-03-31T01:41:13.523Z,101359.11
2019-03-31T01:43:41.935Z,101358.17
2019-03-31T01:46:12.003Z,101359.09
2019-03-31T01:48:40.459Z,101360.37
2019-03-31T01:51:09.128Z,101361.41
2019-03-31T01:53:37.549Z,101358.31
2019-03-31T01:56:05.978Z,101356.48
2019-03-31T01:58:34.730Z,101355.79
2019-03-31T02:01:07.625Z,101352.05
2019-03-31T02:03:36.027Z,101353.23
2019-03-31T02:06:04.591Z,101346.11
2019-03-31T02:08:32.995Z,101349.91
2019-03-31T02:11:01.500Z,101348.86
2019-03-31T02:13:29.933Z,101350.87
2019-03-31T02:15:58.366Z,101351.97
2019-03-31T02:18:26.841Z,101350.56
2019-03-31T02:20:55.363Z,101353.75
2019-03-31T02:23:23.758Z,101353.30
2019-03-31T02:25:52.290Z,101352.94
2019-03-31T02:28:20.731Z,101353.02
2019-03-31T02:30:49.156Z,101349.31
2019-03-31T02:33:17.597Z,101350.48
2019-03-31T02:35:46.133Z,101352.20
2019-03-31T02:38:14.671Z,101349.31
2019-03-31T02:40:43.109Z,101348.19
2019-03-31T02:43:11.514Z,101349.05
2019-03-31T02:45:39.914Z,101351.78
2019-03-31T02:48:08.342Z,101348.47
2019-03-31T02:50:45.480Z,101357.58
2019-03-31T02:53:14.763Z,101357.99
2019-03-31T02:55:44.797Z,101356.30
2019-03-31T02:58:14.935Z,101353.39
2019-03-31T03:00:43.510Z,101352.88
2019-03-31T03:03:13.497Z,101204.53
2019-03-31T03:05:43.075Z,101357.88
2019-03-31T03:08:12.941Z,101348.95
2019-03-31T03:10:43.551Z,101349.41
2019-03-31T03:13:14.293Z,101350.27
2019-03-31T03:15:51.518Z,101349.36
2019-03-31T03:18:19.955Z,101339.11
2019-03-31T03:20:48.388Z,101342.44
2019-03-31T03:23:16.773Z,101341.20
2019-03-31T03:25:55.691Z,101343.30
2019-03-31T03:28:15.356Z,101351.57
2019-03-31T03:30:44.062Z,101348.25
2019-03-31T03:33:16.312Z,101350.76
2019-03-31T03:35:42.645Z,101357.27
2019-03-31T03:38:11.092Z,101351.70
2019-03-31T03:40:39.476Z,101357.72
2019-03-31T03:43:07.884Z,101359.81
2019-03-31T03:45:36.490Z,101362.19
2019-03-31T03:48:04.942Z,101354.54
2019-03-31T03:50:33.367Z,101346.94
2019-03-31T03:53:01.780Z,101353.53
2019-03-31T03:55:30.208Z,101354.39
2019-03-31T03:57:58.619Z,101348.94
2019-03-31T04:00:27.048Z,101355.31
2019-03-31T04:02:55.439Z,101361.12
2019-03-31T04:05:23.859Z,101358.31
2019-03-31T04:07:52.299Z,101363.53
2019-03-31T04:10:40.359Z,101361.22
2019-03-31T04:13:08.755Z,101358.08
2019-03-31T04:15:37.147Z,101363.52
2019-03-31T04:18:05.579Z,101365.70
2019-03-31T04:20:34.048Z,101368.25
2019-03-31T04:23:02.471Z,101361.58
2019-03-31T04:25:30.900Z,101369.77
2019-03-31T04:27:59.389Z,101372.41
2019-03-31T04:30:27.851Z,101377.23
2019-03-31T04:32:56.312Z,101384.78
2019-03-31T04:35:24.746Z,101387.39
2019-03-31T04:37:53.150Z,101386.19
2019-03-31T04:40:21.576Z,101381.02
2019-03-31T04:42:49.970Z,101381.29
2019-03-31T04:45:18.382Z,101391.15
2019-03-31T04:47:46.818Z,101389.02
2019-03-31T04:50:15.322Z,101390.26
2019-03-31T04:52:43.766Z,101388.48
2019-03-31T04:55:12.181Z,101389.47
2019-03-31T04:57:40.615Z,101392.84
2019-03-31T05:00:09.241Z,101392.56
2019-03-31T05:02:37.650Z,101399.89
2019-03-31T05:05:06.235Z,101402.55
2019-03-31T05:07:34.742Z,101397.03
2019-03-31T05:10:04.216Z,101400.87
2019-03-31T05:12:32.641Z,101405.45
2019-03-31T05:15:01.068Z,101408.41
2019-03-31T05:17:29.498Z,101406.19
2019-03-31T05:19:57.938Z,101401.12
2019-03-31T05:22:26.349Z,101406.31
2019-03-31T05:24:54.821Z,101415.00
2019-03-31T05:27:23.263Z,101413.39
2019-03-31T05:29:51.655Z,101420.64
2019-03-31T05:32:20.087Z,101421.91
2019-03-31T05:34:48.488Z,101424.92
2019-03-31T05:37:16.912Z,101421.38
2019-03-31T05:39:45.414Z,101427.39
2019-03-31T05:42:13.848Z,101433.41
2019-03-31T05:44:42.261Z,101436.83
2019-03-31T05:47:10.743Z,101438.93
2019-03-31T05:49:39.163Z,101434.61
2019-03-31T05:52:07.600Z,101438.89
2019-03-31T05:54:36.017Z,101436.41
2019-03-31T05:57:04.591Z,101439.47
2019-03-31T05:59:32.992Z,101443.79
2019-03-31T06:02:02.079Z,101441.73
2019-03-31T06:04:33.340Z,101442.30
2019-03-31T06:07:00.726Z,101440.28
2019-03-31T06:09:29.224Z,101436.94
2019-03-31T06:11:57.639Z,101433.64
2019-03-31T06:14:26.056Z,101431.13
2019-03-31T06:16:54.534Z,101443.59
2019-03-31T06:19:22.955Z,101447.92
2019-03-31T06:21:51.375Z,101447.14
2019-03-31T06:24:19.770Z,101450.19
2019-03-31T06:26:48.252Z,101458.34
2019-03-31T06:29:16.637Z,101456.69
2019-03-31T06:31:45.072Z,101462.82
2019-03-31T06:34:13.482Z,101454.36
2019-03-31T06:36:41.871Z,101457.86
2019-03-31T06:39:10.391Z,101458.39
2019-03-31T06:41:38.783Z,101460.27
2019-03-31T06:44:07.225Z,101474.00
2019-03-31T06:46:35.613Z,101471.97
2019-03-31T06:49:04.023Z,101475.08
2019-03-31T06:51:32.444Z,101478.61
2019-03-31T06:54:00.856Z,101485.53
2019-03-31T06:56:29.270Z,101486.44
2019-03-31T06:58:57.670Z,101492.88
2019-03-31T07:01:26.170Z,101501.86
2019-03-31T07:03:54.660Z,101503.66
2019-03-31T07:06:23.095Z,101510.17
2019-03-31T07:08:51.510Z,101511.97
2019-03-31T07:11:19.917Z,101511.55
2019-03-31T07:13:48.345Z,101513.66
2019-03-31T07:16:16.774Z,101518.74
2019-03-31T07:18:45.181Z,101515.73
2019-03-31T07:21:13.612Z,101515.73
2019-03-31T07:23:42.055Z,101520.85
2019-03-31T07:26:10.539Z,101529.05
2019-03-31T07:28:38.930Z,101524.50
2019-03-31T07:31:07.355Z,101525.20
2019-03-31T07:33:35.792Z,101522.78
2019-03-31T07:36:04.193Z,101526.28
2019-03-31T07:38:38.795Z,101522.52
2019-03-31T07:41:12.439Z,101517.73
2019-03-31T07:43:33.923Z,101527.88
2019-03-31T07:46:02.368Z,101538.79
2019-03-31T07:48:30.793Z,101543.41
2019-03-31T07:50:59.231Z,101547.70
2019-03-31T07:53:27.683Z,101548.87
2019-03-31T07:55:56.109Z,101548.80
2019-03-31T07:58:24.526Z,101551.66
2019-03-31T08:00:52.948Z,101561.86
2019-03-31T08:03:21.391Z,101551.78
2019-03-31T08:05:49.911Z,101554.14
2019-03-31T08:08:18.351Z,101555.23
2019-03-31T08:10:46.765Z,101566.41
2019-03-31T08:13:15.172Z,101562.67
2019-03-31T08:15:43.574Z,101569.27
2019-03-31T08:18:12.024Z,101569.61
2019-03-31T08:20:40.432Z,101571.25
2019-03-31T08:23:08.839Z,101574.55
2019-03-31T08:25:37.267Z,101580.94
2019-03-31T08:28:05.748Z,101577.30
2019-03-31T08:30:34.260Z,101588.39
2019-03-31T08:33:02.702Z,101590.90
2019-03-31T08:35:31.125Z,101593.37
2019-03-31T08:37:59.564Z,101586.03
2019-03-31T08:40:27.946Z,101596.45
2019-03-31T08:42:56.378Z,101603.08
2019-03-31T08:45:24.940Z,101604.67
2019-03-31T08:47:53.337Z,101599.33
2019-03-31T08:50:21.751Z,101613.61
2019-03-31T08:52:50.453Z,101615.80
2019-03-31T08:55:18.854Z,101617.25
2019-03-31T08:57:47.297Z,101616.43
2019-03-31T09:00:24.247Z,101620.72
2019-03-31T09:02:52.671Z,101624.50
2019-03-31T09:05:21.137Z,101626.80
2019-03-31T09:07:49.584Z,101626.75
2019-03-31T09:10:18.063Z,101630.08
2019-03-31T09:12:48.413Z,101627.98
2019-03-31T09:15:16.720Z,101624.15
2019-03-31T09:17:45.120Z,101621.55
2019-03-31T09:20:15.063Z,101620.23
2019-03-31T09:22:43.491Z,101620.23
2019-03-31T09:25:11.957Z,101620.69
2019-03-31T09:27:40.500Z,101623.28
2019-03-31T09:30:11.145Z,101624.11
2019-03-31T09:32:39.808Z,101627.80
2019-03-31T09:35:09.270Z,101623.52
2019-03-31T09:37:37.906Z,101632.55
2019-03-31T09:40:08.858Z,101635.00
2019-03-31T09:42:37.430Z,101637.56
2019-03-31T09:45:07.279Z,101642.53
2019-03-31T09:47:36.158Z,101635.92
2019-03-31T09:50:10.764Z,101641.07
2019-03-31T09:52:39.234Z,101646.18
2019-03-31T09:55:08.602Z,101639.75
2019-03-31T09:57:37.074Z,101646.18
2019-03-31T10:00:11.545Z,101655.89
2019-03-31T10:02:40.019Z,101658.32
2019-03-31T10:05:09.180Z,101665.75
2019-03-31T10:07:39.136Z,101656.81
2019-03-31T10:10:08.984Z,101657.36
2019-03-31T10:12:37.384Z,101664.66
2019-03-31T10:15:07.728Z,101666.75
2019-03-31T10:17:36.210Z,101666.84
2019-03-31T10:20:05.958Z,101670.44
2019-03-31T10:22:34.464Z,101671.72
2019-03-31T10:25:05.502Z,101664.52
2019-03-31T10:27:33.260Z,101671.72
2019-03-31T10:30:02.971Z,101663.69
2019-03-31T10:32:31.450Z,101669.90
2019-03-31T10:34:59.895Z,101670.45
2019-03-31T10:37:28.289Z,101669.75
2019-03-31T10:39:56.935Z,101676.84
2019-03-31T10:42:25.421Z,101673.32
2019-03-31T10:44:53.916Z,101671.63
2019-03-31T10:47:22.323Z,101674.36
2019-03-31T10:49:50.759Z,101671.94
2019-03-31T10:52:19.168Z,101658.49
2019-03-31T10:54:47.575Z,101672.89
2019-03-31T10:57:16.294Z,101670.47
2019-03-31T10:59:44.686Z,101671.75
2019-03-31T11:02:13.070Z,101659.55
2019-03-31T11:04:41.574Z,101666.98
2019-03-31T11:07:09.965Z,101665.02
2019-03-31T11:09:38.575Z,101662.66
2019-03-31T11:12:10.439Z,101666.71
2019-03-31T11:14:39.055Z,101668.86
2019-03-31T11:17:07.445Z,101676.78
2019-03-31T11:19:35.897Z,101669.36
2019-03-31T11:22:05.968Z,101670.05
2019-03-31T11:24:34.376Z,101667.73
2019-03-31T11:27:02.831Z,101661.53
2019-03-31T11:29:31.281Z,101665.91
2019-03-31T11:31:59.721Z,101670.31
2019-03-31T11:34:28.221Z,101667.42
2019-03-31T11:36:56.739Z,101667.98
2019-03-31T11:39:25.140Z,101671.57
2019-03-31T11:41:53.560Z,101671.00
2019-03-31T11:44:21.980Z,101669.02
2019-03-31T11:46:50.419Z,101660.99
2019-03-31T11:49:18.917Z,101672.97
2019-03-31T11:51:47.326Z,101666.56
2019-03-31T11:54:15.765Z,101673.11
2019-03-31T11:56:44.215Z,101661.80
2019-03-31T11:59:13.616Z,101660.05
2019-03-31T12:01:42.165Z,101665.17
2019-03-31T12:04:10.641Z,101663.06
2019-03-31T12:06:39.198Z,101658.53
2019-03-31T12:09:07.912Z,101663.83
2019-03-31T12:11:36.368Z,101659.11
2019-03-31T12:14:05.289Z,101650.83
2019-03-31T12:16:33.826Z,101651.50
2019-03-31T12:19:02.241Z,101642.30
2019-03-31T12:21:30.755Z,101646.87
2019-03-31T12:23:59.246Z,101633.19
2019-03-31T12:26:27.659Z,101630.52
2019-03-31T12:28:56.075Z,101634.14
2019-03-31T12:31:24.509Z,101632.63
2019-03-31T12:33:52.937Z,101639.63
2019-03-31T12:36:21.517Z,101626.67
2019-03-31T12:38:53.591Z,101628.11
2019-03-31T12:41:20.146Z,101623.61
2019-03-31T12:43:48.574Z,101615.70
2019-03-31T12:46:16.982Z,101624.96
2019-03-31T12:48:45.409Z,101631.64
2019-03-31T12:51:13.815Z,101629.59
2019-03-31T12:53:42.222Z,101620.17
2019-03-31T12:56:10.627Z,101626.79
2019-03-31T12:58:39.062Z,101619.89
2019-03-31T13:01:07.565Z,101625.51
2019-03-31T13:03:36.002Z,101628.95
2019-03-31T13:06:04.411Z,101614.22
2019-03-31T13:08:32.849Z,101614.22
2019-03-31T13:11:01.258Z,101616.37
2019-03-31T13:13:29.666Z,101614.41
2019-03-31T13:15:58.180Z,101608.16
2019-03-31T13:18:28.178Z,101616.28
2019-03-31T13:20:56.866Z,101613.70
2019-03-31T13:23:25.277Z,101613.84
2019-03-31T13:25:53.849Z,101614.22
2019-03-31T13:28:22.278Z,101612.14
2019-03-31T13:30:50.750Z,101605.19
2019-03-31T13:33:19.190Z,101612.55
2019-03-31T13:35:47.719Z,101597.79
2019-03-31T13:38:16.158Z,101596.31
2019-03-31T13:40:44.565Z,101604.25
2019-03-31T13:43:13.087Z,101595.70
2019-03-31T13:45:41.550Z,101603.67
2019-03-31T13:48:10.096Z,101600.28
2019-03-31T13:50:38.484Z,101605.20
2019-03-31T13:53:06.904Z,101595.65
2019-03-31T13:55:35.473Z,101589.30
2019-03-31T13:58:04.943Z,101587.68
2019-03-31T14:00:36.505Z,101592.11
2019-03-31T14:03:05.320Z,101583.94
2019-03-31T14:05:33.741Z,101583.15
2019-03-31T14:08:02.165Z,101582.20
2019-03-31T14:10:30.576Z,101580.13
2019-03-31T14:12:58.978Z,101583.58
2019-03-31T14:15:27.482Z,101580.47
2019-03-31T14:17:55.900Z,101585.19
2019-03-31T14:20:24.314Z,101578.43
2019-03-31T14:22:52.751Z,101577.06
2019-03-31T14:25:21.162Z,101582.19
2019-03-31T14:27:49.639Z,101575.12
2019-03-31T14:30:18.214Z,101576.69
2019-03-31T14:32:46.622Z,101585.68
2019-03-31T14:35:15.101Z,101576.31
2019-03-31T14:37:43.617Z,101566.63
2019-03-31T14:40:12.090Z,101573.57
2019-03-31T14:42:40.573Z,101569.29
2019-03-31T14:45:10.668Z,101571.36
2019-03-31T14:47:39.178Z,101568.23
2019-03-31T14:50:07.915Z,101568.91
2019-03-31T14:52:36.312Z,101562.87
2019-03-31T14:55:05.596Z,101561.33
2019-03-31T14:57:33.992Z,101563.25
2019-03-31T15:00:13.850Z,101564.77
2019-03-31T15:02:32.618Z,101550.62
2019-03-31T15:05:01.023Z,101566.88
2019-03-31T15:07:29.472Z,101555.77
2019-03-31T15:09:57.898Z,101556.14
2019-03-31T15:12:26.310Z,101555.21
2019-03-31T15:14:54.792Z,101560.36
2019-03-31T15:17:23.233Z,101573.26
2019-03-31T15:19:51.668Z,101574.55
2019-03-31T15:22:20.081Z,101572.22
2019-03-31T15:24:48.526Z,101565.08
2019-03-31T15:27:16.953Z,101561.73
2019-03-31T15:29:45.424Z,101567.34
2019-03-31T15:32:14.029Z,101577.50
2019-03-31T15:34:42.593Z,101563.13
2019-03-31T15:37:11.246Z,101572.64
2019-03-31T15:39:39.732Z,101566.99
2019-03-31T15:42:08.160Z,101569.05
2019-03-31T15:44:36.569Z,101556.15
2019-03-31T15:47:05.000Z,101568.42
2019-03-31T15:49:33.422Z,101567.98
2019-03-31T15:52:01.844Z,101562.58
2019-03-31T15:54:30.270Z,101569.37
2019-03-31T15:56:58.688Z,101574.92
2019-03-31T15:59:27.248Z,101572.47
2019-03-31T16:01:55.863Z,101572.05
2019-03-31T16:04:24.471Z,101573.77
2019-03-31T16:06:53.165Z,101571.54
2019-03-31T16:09:23.522Z,101573.22
2019-03-31T16:11:54.082Z,101576.48
2019-03-31T16:14:22.077Z,101584.67
2019-03-31T16:16:50.484Z,101579.13
2019-03-31T16:19:19.041Z,101582.58
2019-03-31T16:21:47.442Z,101576.34
2019-03-31T16:24:15.911Z,101587.67
2019-03-31T16:26:44.383Z,101589.02
2019-03-31T16:29:12.785Z,101584.20
2019-03-31T16:31:41.215Z,101575.53
2019-03-31T16:34:09.620Z,101567.83
2019-03-31T16:36:38.053Z,101577.85
2019-03-31T16:39:07.219Z,101571.92
2019-03-31T16:41:35.600Z,101577.91
2019-03-31T16:44:04.034Z,101570.91
2019-03-31T16:46:32.494Z,101582.47
2019-03-31T16:49:15.873Z,101580.47
2019-03-31T16:51:44.448Z,101585.06
2019-03-31T16:54:12.981Z,101587.73
2019-03-31T16:56:41.402Z,101587.09
2019-03-31T16:59:09.850Z,101586.29
2019-03-31T17:01:38.314Z,101590.86
2019-03-31T17:04:06.802Z,101601.37
2019-03-31T17:06:35.221Z,101598.70
2019-03-31T17:09:05.692Z,101599.98
2019-03-31T17:11:34.272Z,101604.08
2019-03-31T17:14:02.670Z,101607.72
2019-03-31T17:16:31.211Z,101605.08
2019-03-31T17:18:59.641Z,101606.92
2019-03-31T17:21:28.054Z,101608.12
2019-03-31T17:23:56.538Z,101611.53
2019-03-31T17:26:24.946Z,101612.71
2019-03-31T17:28:53.374Z,101609.92
2019-03-31T17:31:21.798Z,101612.41
2019-03-31T17:33:50.197Z,101612.28
2019-03-31T17:36:18.693Z,101609.13
2019-03-31T17:38:47.092Z,101610.85
2019-03-31T17:41:15.565Z,101620.42
2019-03-31T17:43:43.980Z,101609.34
2019-03-31T17:46:12.399Z,101615.40
2019-03-31T17:48:40.821Z,101618.57
2019-03-31T17:51:09.218Z,101615.50
2019-03-31T17:53:37.643Z,101621.76
2019-03-31T17:56:06.147Z,101621.01
2019-03-31T17:58:34.548Z,101619.28
2019-03-31T18:01:03.033Z,101624.87
2019-03-31T18:03:31.457Z,101616.60
2019-03-31T18:05:59.876Z,101619.23
2019-03-31T18:08:28.413Z,101623.02
2019-03-31T18:10:56.835Z,101620.72
2019-03-31T18:13:25.354Z,101623.87
2019-03-31T18:15:53.768Z,101622.08
2019-03-31T18:18:22.171Z,101622.14
2019-03-31T18:20:50.582Z,101625.95
2019-03-31T18:23:19.066Z,101632.84
2019-03-31T18:25:47.507Z,101635.19
2019-03-31T18:28:15.910Z,101639.67
2019-03-31T18:30:44.350Z,101639.83
2019-03-31T18:33:12.752Z,101646.34
2019-03-31T18:35:41.171Z,101640.32
2019-03-31T18:38:09.606Z,101649.29
2019-03-31T18:40:38.489Z,101643.20
2019-03-31T18:43:06.955Z,101640.53
2019-03-31T18:45:35.486Z,101648.53
2019-03-31T18:48:03.892Z,101644.55
2019-03-31T18:50:32.314Z,101653.06
2019-03-31T18:53:01.018Z,101659.88
2019-03-31T18:55:31.084Z,101660.11
2019-03-31T18:58:17.518Z,101665.54
2019-03-31T19:00:48.030Z,101665.95
2019-03-31T19:03:33.108Z,101665.09
2019-03-31T19:06:21.050Z,101668.09
2019-03-31T19:08:51.110Z,101669.95
2019-03-31T19:11:26.665Z,101662.73
2019-03-31T19:13:56.857Z,101669.31
2019-03-31T19:16:26.998Z,101675.56
2019-03-31T19:19:05.904Z,101670.82
2019-03-31T19:21:44.727Z,101677.48
2019-03-31T19:24:20.657Z,101678.01
2019-03-31T19:26:53.175Z,101678.09
2019-03-31T19:29:23.259Z,101679.89
2019-03-31T19:31:59.242Z,101677.97
2019-03-31T19:34:32.368Z,101683.42
2019-03-31T19:37:17.686Z,101682.25
2019-03-31T19:39:53.408Z,101681.50
2019-03-31T19:42:39.654Z,101678.41
2019-03-31T19:45:12.656Z,101682.25
2019-03-31T19:47:45.428Z,101681.06
2019-03-31T19:50:18.487Z,101680.61
2019-03-31T19:53:05.002Z,101678.42
2019-03-31T19:55:44.129Z,101684.45
2019-03-31T19:58:22.758Z,101684.00
2019-03-31T20:01:03.115Z,101683.09
2019-03-31T20:03:48.151Z,101683.55
2019-03-31T20:06:20.712Z,101697.86
2019-03-31T20:08:53.646Z,101694.27
2019-03-31T20:11:23.932Z,101693.44
2019-03-31T20:14:06.088Z,101690.09
2019-03-31T20:16:52.367Z,101691.05
2019-03-31T20:19:31.606Z,101689.69
2019-03-31T20:22:04.458Z,101691.66
2019-03-31T20:24:34.531Z,101688.56
2019-03-31T20:27:10.752Z,101693.84
2019-03-31T20:29:52.815Z,101683.82
2019-03-31T20:32:26.017Z,101692.63
2019-03-31T20:34:56.174Z,101693.41
2019-03-31T20:37:29.303Z,101687.25
2019-03-31T20:40:15.523Z,101694.84
2019-03-31T20:43:02.027Z,101695.88
2019-03-31T20:45:30.528Z,101690.42
2019-03-31T20:47:58.915Z,101698.91
2019-03-31T20:50:27.434Z,101696.22
2019-03-31T20:52:55.805Z,101699.14
2019-03-31T20:55:24.327Z,101698.14
2019-03-31T20:57:52.744Z,101689.61
2019-03-31T21:00:21.289Z,101697.41
2019-03-31T21:02:49.766Z,101700.96
2019-03-31T21:05:18.325Z,101701.02
2019-03-31T21:07:46.787Z,101696.17
2019-03-31T21:10:15.215Z,101699.96
2019-03-31T21:12:43.678Z,101697.09
2019-03-31T21:15:12.142Z,101699.55
2019-03-31T21:17:40.547Z,101701.59
2019-03-31T21:20:09.147Z,101702.42
2019-03-31T21:22:37.564Z,101706.61
2019-03-31T21:25:07.000Z,101706.75
2019-03-31T21:27:35.414Z,101713.59
2019-03-31T21:30:05.286Z,101722.70
2019-03-31T21:32:33.682Z,101722.76
2019-03-31T21:35:02.186Z,101724.27
2019-03-31T21:37:30.583Z,101728.81
2019-03-31T21:39:58.997Z,101720.45
2019-03-31T21:42:27.457Z,101717.66
2019-03-31T21:44:55.943Z,101719.62
2019-03-31T21:47:24.343Z,101724.31
2019-03-31T21:49:52.762Z,101715.98
2019-03-31T21:52:21.202Z,101720.64
2019-03-31T21:54:49.679Z,101724.70
2019-03-31T21:57:18.108Z,101720.97
2019-03-31T21:59:46.671Z,101730.91
2019-03-31T22:02:15.165Z,101732.61
2019-03-31T22:04:43.668Z,101730.77
2019-03-31T22:07:12.073Z,101732.91
2019-03-31T22:09:40.496Z,101739.25
2019-03-31T22:12:09.024Z,101733.12
2019-03-31T22:14:37.586Z,101728.47
2019-03-31T22:17:06.024Z,101731.44
2019-03-31T22:19:34.461Z,101729.70
2019-03-31T22:22:02.940Z,101728.13
2019-03-31T22:24:31.298Z,101720.55
2019-03-31T22:26:59.736Z,101722.97
2019-03-31T22:29:28.158Z,101721.58
2019-03-31T22:31:56.568Z,101721.58
2019-03-31T22:34:25.049Z,101717.34
2019-03-31T22:36:53.447Z,101720.36
2019-03-31T22:39:21.908Z,101720.50
2019-03-31T22:41:50.314Z,101721.78
2019-03-31T22:44:18.760Z,101724.97
2019-03-31T22:46:54.234Z,101718.51
2019-03-31T22:49:17.465Z,101724.72
2019-03-31T22:51:45.921Z,101724.09
2019-03-31T22:54:14.301Z,101720.72
2019-03-31T22:56:42.741Z,101715.63
2019-03-31T22:59:11.249Z,101719.16
2019-03-31T23:01:39.643Z,101721.31
2019-03-31T23:04:08.150Z,101716.22
2019-03-31T23:06:36.557Z,101712.39
2019-03-31T23:09:06.756Z,101713.88
2019-03-31T23:11:35.285Z,101707.38
2019-03-31T23:14:03.918Z,101715.67
2019-03-31T23:16:32.247Z,101718.11
2019-03-31T23:19:00.663Z,101716.08
2019-03-31T23:21:29.068Z,101716.23
2019-03-31T23:23:57.472Z,101724.59
2019-03-31T23:26:25.953Z,101721.32
2019-03-31T23:28:54.376Z,101718.02
2019-03-31T23:31:22.788Z,101714.55
2019-03-31T23:33:51.249Z,101717.44
2019-03-31T23:36:19.648Z,101713.98
2019-03-31T23:38:48.076Z,101711.27
2019-03-31T23:41:16.476Z,101717.92
2019-03-31T23:43:44.944Z,101713.93
2019-03-31T23:46:13.398Z,101713.55
2019-03-31T23:48:41.781Z,101700.86
2019-03-31T23:51:10.196Z,101699.31
2019-03-31T23:53:38.593Z,101697.75
2019-03-31T23:56:06.995Z,101701.58
2019-03-31T23:58:35.418Z,101699.38
